sensor_id;sensor_type;location;lat;lon;timestamp;pressure;altitude;pressure_sealevel;temperature;humidity
61678;BME280;47575;52.054;4.334;2022-07-29T00:01:49;101777.41;;;17.33;100.00
61678;BME280;47575;52.054;4.334;2022-07-29T00:04:18;101773.19;;;17.29;100.00
61678;BME280;47575;52.054;4.334;2022-07-29T00:06:46;101770.69;;;17.26;100.00
61678;BME280;47575;52.054;4.334;2022-07-29T00:09:14;101770.75;;;17.25;100.00
61678;BME280;47575;52.054;4.334;2022-07-29T00:11:41;101764.59;;;17.24;100.00
61678;BME280;47575;52.054;4.334;2022-07-29T00:14:08;101762.16;;;17.20;100.00
61678;BME280;47575;52.054;4.334;2022-07-29T00:16:36;101772.81;;;17.18;100.00
61678;BME280;47575;52.054;4.334;2022-07-29T00:19:03;101772.22;;;17.11;100.00
61678;BME280;47575;52.054;4.334;2022-07-29T00:21:31;101755.41;;;17.12;100.00
61678;BME280;47575;52.054;4.334;2022-07-29T00:23:59;101755.66;;;17.08;100.00
61678;BME280;47575;52.054;4.334;2022-07-29T00:26:26;101758.38;;;17.06;100.00
61678;BME280;47575;52.054;4.334;2022-07-29T00:28:58;101761.13;;;17.03;100.00
61678;BME280;47575;52.054;4.334;2022-07-29T00:31:25;101757.69;;;17.01;100.00
61678;BME280;47575;52.054;4.334;2022-07-29T00:33:52;101750.63;;;17.02;100.00
61678;BME280;47575;52.054;4.334;2022-07-29T00:36:20;101758.63;;;17.00;100.00
61678;BME280;47575;52.054;4.334;2022-07-29T00:38:46;101754.31;;;16.98;100.00
61678;BME280;47575;52.054;4.334;2022-07-29T00:41:15;101753.59;;;16.94;100.00
61678;BME280;47575;52.054;4.334;2022-07-29T00:43:43;101757.59;;;16.84;100.00
61678;BME280;47575;52.054;4.334;2022-07-29T00:46:11;101747.00;;;16.84;100.00
61678;BME280;47575;52.054;4.334;2022-07-29T00:48:38;101747.00;;;16.84;100.00
61678;BME280;47575;52.054;4.334;2022-07-29T00:51:06;101748.84;;;16.82;100.00
61678;BME280;47575;52.054;4.334;2022-07-29T00:53:36;101752.34;;;16.82;100.00
61678;BME280;47575;52.054;4.334;2022-07-29T00:56:03;101740.97;;;16.80;100.00
61678;BME280;47575;52.054;4.334;2022-07-29T00:58:32;101744.63;;;16.78;100.00
61678;BME280;47575;52.054;4.334;2022-07-29T01:00:59;101744.72;;;16.76;100.00
61678;BME280;47575;52.054;4.334;2022-07-29T01:03:27;101750.00;;;16.76;100.00
61678;BME280;47575;52.054;4.334;2022-07-29T01:05:54;101739.53;;;16.73;100.00
61678;BME280;47575;52.054;4.334;2022-07-29T01:08:23;101738.69;;;16.73;100.00
61678;BME280;47575;52.054;4.334;2022-07-29T01:10:50;101737.97;;;16.69;100.00
61678;BME280;47575;52.054;4.334;2022-07-29T01:13:18;101733.63;;;16.67;100.00
61678;BME280;47575;52.054;4.334;2022-07-29T01:15:51;101746.13;;;16.63;100.00
61678;BME280;47575;52.054;4.334;2022-07-29T01:18:24;101736.41;;;16.64;100.00
61678;BME280;47575;52.054;4.334;2022-07-29T01:21:12;101739.03;;;16.64;100.00
61678;BME280;47575;52.054;4.334;2022-07-29T01:23:59;101735.53;;;16.63;100.00
61678;BME280;47575;52.054;4.334;2022-07-29T01:26:41;101724.03;;;16.64;100.00
61678;BME280;47575;52.054;4.334;2022-07-29T01:29:18;101726.75;;;16.63;100.00
61678;BME280;47575;52.054;4.334;2022-07-29T01:31:50;101724.31;;;16.58;100.00
61678;BME280;47575;52.054;4.334;2022-07-29T01:34:21;101719.94;;;16.57;100.00
61678;BME280;47575;52.054;4.334;2022-07-29T01:36:52;101729.72;;;16.55;100.00
61678;BME280;47575;52.054;4.334;2022-07-29T01:39:26;101727.09;;;16.55;100.00
61678;BME280;47575;52.054;4.334;2022-07-29T01:41:57;101723.63;;;16.53;100.00
61678;BME280;47575;52.054;4.334;2022-07-29T01:44:31;101725.50;;;16.51;100.00
61678;BME280;47575;52.054;4.334;2022-07-29T01:47:05;101722.06;;;16.49;100.00
61678;BME280;47575;52.054;4.334;2022-07-29T01:49:36;101722.25;;;16.44;100.00
61678;BME280;47575;52.054;4.334;2022-07-29T01:52:10;101720.41;;;16.46;100.00
61678;BME280;47575;52.054;4.334;2022-07-29T01:54:40;101718.75;;;16.44;100.00
61678;BME280;47575;52.054;4.334;2022-07-29T01:57:12;101708.97;;;16.46;100.00
61678;BME280;47575;52.054;4.334;2022-07-29T01:59:43;101713.53;;;16.42;100.00
61678;BME280;47575;52.054;4.334;2022-07-29T02:02:14;101702.09;;;16.42;100.00
61678;BME280;47575;52.054;4.334;2022-07-29T02:04:43;101693.31;;;16.41;100.00
61678;BME280;47575;52.054;4.334;2022-07-29T02:07:18;101698.78;;;16.37;100.00
61678;BME280;47575;52.054;4.334;2022-07-29T02:09:49;101697.00;;;16.37;100.00
61678;BME280;47575;52.054;4.334;2022-07-29T02:12:18;101704.06;;;16.37;100.00
61678;BME280;47575;52.054;4.334;2022-07-29T02:14:51;101699.88;;;16.32;100.00
61678;BME280;47575;52.054;4.334;2022-07-29T02:17:22;101707.09;;;16.27;100.00
61678;BME280;47575;52.054;4.334;2022-07-29T02:19:52;101702.69;;;16.28;100.00
61678;BME280;47575;52.054;4.334;2022-07-29T02:22:21;101702.69;;;16.28;100.00
61678;BME280;47575;52.054;4.334;2022-07-29T02:24:50;101706.25;;;16.27;100.00
61678;BME280;47575;52.054;4.334;2022-07-29T02:27:20;101707.09;;;16.27;100.00
61678;BME280;47575;52.054;4.334;2022-07-29T02:29:51;101707.25;;;16.24;100.00
61678;BME280;47575;52.054;4.334;2022-07-29T02:32:21;101704.66;;;16.23;100.00
61678;BME280;47575;52.054;4.334;2022-07-29T02:34:51;101704.66;;;16.23;100.00
61678;BME280;47575;52.054;4.334;2022-07-29T02:37:19;101700.28;;;16.22;100.00
61678;BME280;47575;52.054;4.334;2022-07-29T02:39:48;101699.44;;;16.21;100.00
61678;BME280;47575;52.054;4.334;2022-07-29T02:42:17;101707.50;;;16.18;100.00
61678;BME280;47575;52.054;4.334;2022-07-29T02:44:45;101703.16;;;16.17;100.00
61678;BME280;47575;52.054;4.334;2022-07-29T02:47:18;101697.00;;;16.17;100.00
61678;BME280;47575;52.054;4.334;2022-07-29T02:49:52;101697.03;;;16.15;100.00
61678;BME280;47575;52.054;4.334;2022-07-29T02:52:26;101695.59;;;16.08;100.00
61678;BME280;47575;52.054;4.334;2022-07-29T02:54:56;101697.34;;;16.09;100.00
61678;BME280;47575;52.054;4.334;2022-07-29T02:57:32;101686.88;;;16.06;100.00
61678;BME280;47575;52.054;4.334;2022-07-29T03:00:04;101688.66;;;16.05;100.00
61678;BME280;47575;52.054;4.334;2022-07-29T03:02:36;101685.22;;;16.03;100.00
61678;BME280;47575;52.054;4.334;2022-07-29T03:05:07;101692.41;;;16.00;100.00
61678;BME280;47575;52.054;4.334;2022-07-29T03:07:36;101687.13;;;16.00;100.00
61678;BME280;47575;52.054;4.334;2022-07-29T03:10:07;101688.19;;;15.96;100.00
61678;BME280;47575;52.054;4.334;2022-07-29T03:12:35;101691.69;;;15.96;100.00
61678;BME280;47575;52.054;4.334;2022-07-29T03:15:03;101684.72;;;15.94;100.00
61678;BME280;47575;52.054;4.334;2022-07-29T03:17:31;101687.38;;;15.94;100.00
61678;BME280;47575;52.054;4.334;2022-07-29T03:20:00;101689.16;;;15.93;100.00
61678;BME280;47575;52.054;4.334;2022-07-29T03:22:28;101684.63;;;15.97;100.00
61678;BME280;47575;52.054;4.334;2022-07-29T03:24:56;101682.03;;;15.95;100.00
61678;BME280;47575;52.054;4.334;2022-07-29T03:27:23;101682.03;;;15.95;100.00
61678;BME280;47575;52.054;4.334;2022-07-29T03:29:50;101683.06;;;15.91;100.00
61678;BME280;47575;52.054;4.334;2022-07-29T03:32:17;101681.19;;;15.95;100.00
61678;BME280;47575;52.054;4.334;2022-07-29T03:34:44;101684.72;;;15.94;100.00
61678;BME280;47575;52.054;4.334;2022-07-29T03:37:13;101682.09;;;15.94;100.00
61678;BME280;47575;52.054;4.334;2022-07-29T03:39:41;101676.81;;;15.94;100.00
61678;BME280;47575;52.054;4.334;2022-07-29T03:42:12;101680.44;;;15.91;100.00
61678;BME280;47575;52.054;4.334;2022-07-29T03:44:41;101682.16;;;15.92;100.00
61678;BME280;47575;52.054;4.334;2022-07-29T03:47:11;101677.09;;;15.88;100.00
61678;BME280;47575;52.054;4.334;2022-07-29T03:49:40;101680.75;;;15.84;100.00
61678;BME280;47575;52.054;4.334;2022-07-29T03:52:09;101675.41;;;15.85;100.00
61678;BME280;47575;52.054;4.334;2022-07-29T03:54:38;101677.19;;;15.85;100.00
61678;BME280;47575;52.054;4.334;2022-07-29T03:57:07;101676.34;;;15.84;100.00
61678;BME280;47575;52.054;4.334;2022-07-29T03:59:35;101678.97;;;15.84;100.00
61678;BME280;47575;52.054;4.334;2022-07-29T04:02:05;101682.47;;;15.85;100.00
61678;BME280;47575;52.054;4.334;2022-07-29T04:04:33;101686.16;;;15.81;100.00
61678;BME280;47575;52.054;4.334;2022-07-29T04:07:00;101687.88;;;15.82;100.00
61678;BME280;47575;52.054;4.334;2022-07-29T04:09:28;101684.25;;;15.84;100.00
61678;BME280;47575;52.054;4.334;2022-07-29T04:11:56;101680.69;;;15.85;100.00
61678;BME280;47575;52.054;4.334;2022-07-29T04:14:24;101680.69;;;15.85;100.00
61678;BME280;47575;52.054;4.334;2022-07-29T04:16:51;101680.81;;;15.82;100.00
61678;BME280;47575;52.054;4.334;2022-07-29T04:19:18;101683.56;;;15.79;100.00
61678;BME280;47575;52.054;4.334;2022-07-29T04:21:46;101677.19;;;15.85;100.00
61678;BME280;47575;52.054;4.334;2022-07-29T04:24:13;101685.94;;;15.87;100.00
61678;BME280;47575;52.054;4.334;2022-07-29T04:26:40;101676.25;;;15.86;100.00
61678;BME280;47575;52.054;4.334;2022-07-29T04:29:09;101674.69;;;15.82;100.00
61678;BME280;47575;52.054;4.334;2022-07-29T04:31:37;101671.19;;;15.81;100.00
61678;BME280;47575;52.054;4.334;2022-07-29T04:34:05;101678.19;;;15.82;100.00
61678;BME280;47575;52.054;4.334;2022-07-29T04:36:32;101676.56;;;15.78;100.00
61678;BME280;47575;52.054;4.334;2022-07-29T04:38:59;101675.94;;;15.73;100.00
61678;BME280;47575;52.054;4.334;2022-07-29T04:41:27;101683.00;;;15.72;100.00
61678;BME280;47575;52.054;4.334;2022-07-29T04:43:54;101682.13;;;15.72;100.00
61678;BME280;47575;52.054;4.334;2022-07-29T04:46:23;101695.31;;;15.72;100.00
61678;BME280;47575;52.054;4.334;2022-07-29T04:48:50;101696.28;;;15.69;100.00
61678;BME280;47575;52.054;4.334;2022-07-29T04:51:18;101690.16;;;15.69;100.00
61678;BME280;47575;52.054;4.334;2022-07-29T04:53:45;101683.94;;;15.70;100.00
61678;BME280;47575;52.054;4.334;2022-07-29T04:56:12;101681.31;;;15.70;100.00
61678;BME280;47575;52.054;4.334;2022-07-29T04:58:39;101691.94;;;15.68;100.00
61678;BME280;47575;52.054;4.334;2022-07-29T05:01:06;101682.06;;;15.73;100.00
61678;BME280;47575;52.054;4.334;2022-07-29T05:03:35;101687.03;;;15.81;100.00
61678;BME280;47575;52.054;4.334;2022-07-29T05:06:02;101687.66;;;15.88;100.00
61678;BME280;47575;52.054;4.334;2022-07-29T05:08:30;101691.00;;;15.91;100.00
61678;BME280;47575;52.054;4.334;2022-07-29T05:10:57;101687.88;;;16.03;100.00
61678;BME280;47575;52.054;4.334;2022-07-29T05:13:24;101698.50;;;16.22;100.00
61678;BME280;47575;52.054;4.334;2022-07-29T05:15:52;101697.16;;;16.54;100.00
61678;BME280;47575;52.054;4.334;2022-07-29T05:18:19;101693.03;;;16.69;100.00
61678;BME280;47575;52.054;4.334;2022-07-29T05:20:48;101696.72;;;17.04;100.00
61678;BME280;47575;52.054;4.334;2022-07-29T05:23:15;101699.38;;;17.61;100.00
61678;BME280;47575;52.054;4.334;2022-07-29T05:25:42;101691.00;;;18.06;100.00
61678;BME280;47575;52.054;4.334;2022-07-29T05:28:10;101690.44;;;18.51;100.00
61678;BME280;47575;52.054;4.334;2022-07-29T05:30:37;101696.91;;;18.80;100.00
61678;BME280;47575;52.054;4.334;2022-07-29T05:33:04;101691.88;;;19.25;100.00
61678;BME280;47575;52.054;4.334;2022-07-29T05:35:32;101690.66;;;19.15;100.00
61678;BME280;47575;52.054;4.334;2022-07-29T05:38:02;101692.63;;;19.11;100.00
61678;BME280;47575;52.054;4.334;2022-07-29T05:40:29;101694.88;;;19.50;100.00
61678;BME280;47575;52.054;4.334;2022-07-29T05:42:56;101700.50;;;19.28;100.00
61678;BME280;47575;52.054;4.334;2022-07-29T05:45:24;101691.81;;;18.93;100.00
61678;BME280;47575;52.054;4.334;2022-07-29T05:47:51;101704.66;;;18.85;100.00
61678;BME280;47575;52.054;4.334;2022-07-29T05:50:18;101696.69;;;18.68;100.00
61678;BME280;47575;52.054;4.334;2022-07-29T05:52:45;101701.19;;;18.83;100.00
61678;BME280;47575;52.054;4.334;2022-07-29T05:55:14;101710.53;;;18.90;100.00
61678;BME280;47575;52.054;4.334;2022-07-29T05:57:41;101714.13;;;18.89;100.00
61678;BME280;47575;52.054;4.334;2022-07-29T06:00:11;101713.41;;;19.03;100.00
61678;BME280;47575;52.054;4.334;2022-07-29T06:02:39;101716.47;;;18.95;100.00
61678;BME280;47575;52.054;4.334;2022-07-29T06:05:06;101706.66;;;18.80;100.00
61678;BME280;47575;52.054;4.334;2022-07-29T06:07:34;101710.63;;;18.89;100.00
61678;BME280;47575;52.054;4.334;2022-07-29T06:10:02;101716.38;;;18.97;100.00
61678;BME280;47575;52.054;4.334;2022-07-29T06:12:30;101719.94;;;19.29;100.00
61678;BME280;47575;52.054;4.334;2022-07-29T06:14:58;101712.50;;;19.35;100.00
61678;BME280;47575;52.054;4.334;2022-07-29T06:17:25;101716.41;;;19.61;100.00
61678;BME280;47575;52.054;4.334;2022-07-29T06:19:52;101714.38;;;19.67;100.00
61678;BME280;47575;52.054;4.334;2022-07-29T06:22:19;101717.78;;;19.84;100.00
61678;BME280;47575;52.054;4.334;2022-07-29T06:24:47;101724.47;;;19.76;100.00
61678;BME280;47575;52.054;4.334;2022-07-29T06:27:14;101715.03;;;19.70;100.00
61678;BME280;47575;52.054;4.334;2022-07-29T06:29:43;101714.41;;;19.97;100.00
61678;BME280;47575;52.054;4.334;2022-07-29T06:32:10;101712.69;;;19.96;100.00
61678;BME280;47575;52.054;4.334;2022-07-29T06:34:38;101712.22;;;19.89;100.00
61678;BME280;47575;52.054;4.334;2022-07-29T06:37:08;101724.16;;;19.96;100.00
61678;BME280;47575;52.054;4.334;2022-07-29T06:39:36;101721.34;;;19.99;100.00
61678;BME280;47575;52.054;4.334;2022-07-29T06:42:03;101717.69;;;19.86;100.00
61678;BME280;47575;52.054;4.334;2022-07-29T06:44:31;101707.63;;;20.07;100.00
61678;BME280;47575;52.054;4.334;2022-07-29T06:47:01;101708.53;;;20.22;100.00
61678;BME280;47575;52.054;4.334;2022-07-29T06:49:28;101715.28;;;20.57;100.00
61678;BME280;47575;52.054;4.334;2022-07-29T06:51:55;101714.53;;;20.39;100.00
61678;BME280;47575;52.054;4.334;2022-07-29T06:54:23;101723.75;;;20.34;100.00
61678;BME280;47575;52.054;4.334;2022-07-29T06:56:50;101720.72;;;20.70;100.00
61678;BME280;47575;52.054;4.334;2022-07-29T06:59:17;101733.06;;;20.57;100.00
61678;BME280;47575;52.054;4.334;2022-07-29T07:01:44;101732.88;;;20.60;100.00
61678;BME280;47575;52.054;4.334;2022-07-29T07:04:13;101729.38;;;20.13;100.00
61678;BME280;47575;52.054;4.334;2022-07-29T07:06:40;101728.84;;;20.23;100.00
61678;BME280;47575;52.054;4.334;2022-07-29T07:09:07;101728.13;;;20.35;100.00
61678;BME280;47575;52.054;4.334;2022-07-29T07:11:35;101732.94;;;20.28;100.00
61678;BME280;47575;52.054;4.334;2022-07-29T07:14:02;101733.44;;;20.05;100.00
61678;BME280;47575;52.054;4.334;2022-07-29T07:16:30;101736.22;;;20.17;100.00
61678;BME280;47575;52.054;4.334;2022-07-29T07:18:57;101742.81;;;20.26;100.00
61678;BME280;47575;52.054;4.334;2022-07-29T07:21:26;101738.78;;;21.08;100.00
61678;BME280;47575;52.054;4.334;2022-07-29T07:23:54;101745.19;;;21.48;100.00
61678;BME280;47575;52.054;4.334;2022-07-29T07:26:21;101741.97;;;22.11;100.00
61678;BME280;47575;52.054;4.334;2022-07-29T07:28:48;101750.72;;;22.40;100.00
61678;BME280;47575;52.054;4.334;2022-07-29T07:31:15;101760.16;;;22.58;100.00
61678;BME280;47575;52.054;4.334;2022-07-29T07:33:43;101749.28;;;23.74;100.00
61678;BME280;47575;52.054;4.334;2022-07-29T07:36:10;101749.44;;;23.60;100.00
61678;BME280;47575;52.054;4.334;2022-07-29T07:38:39;101739.19;;;24.15;100.00
61678;BME280;47575;52.054;4.334;2022-07-29T07:41:06;101743.72;;;24.25;100.00
61678;BME280;47575;52.054;4.334;2022-07-29T07:43:33;101750.69;;;23.05;100.00
61678;BME280;47575;52.054;4.334;2022-07-29T07:46:00;101754.88;;;23.71;100.00
61678;BME280;47575;52.054;4.334;2022-07-29T07:48:28;101756.56;;;23.60;100.00
61678;BME280;47575;52.054;4.334;2022-07-29T07:50:56;101745.81;;;23.61;100.00
61678;BME280;47575;52.054;4.334;2022-07-29T07:53:23;101754.41;;;23.41;100.00
61678;BME280;47575;52.054;4.334;2022-07-29T07:55:52;101751.72;;;23.28;100.00
61678;BME280;47575;52.054;4.334;2022-07-29T07:58:19;101750.81;;;23.04;100.00
61678;BME280;47575;52.054;4.334;2022-07-29T08:00:47;101746.94;;;23.08;100.00
61678;BME280;47575;52.054;4.334;2022-07-29T08:03:14;101737.88;;;22.98;100.00
61678;BME280;47575;52.054;4.334;2022-07-29T08:05:41;101740.19;;;23.15;100.00
61678;BME280;47575;52.054;4.334;2022-07-29T08:08:09;101742.41;;;23.46;100.00
61678;BME280;47575;52.054;4.334;2022-07-29T08:10:36;101745.94;;;23.84;100.00
61678;BME280;47575;52.054;4.334;2022-07-29T08:13:25;101738.84;;;24.54;100.00
61678;BME280;47575;52.054;4.334;2022-07-29T08:15:56;101733.56;;;24.42;100.00
61678;BME280;47575;52.054;4.334;2022-07-29T08:18:26;101748.97;;;25.20;100.00
61678;BME280;47575;52.054;4.334;2022-07-29T08:20:53;101741.81;;;24.85;100.00
61678;BME280;47575;52.054;4.334;2022-07-29T08:23:21;101746.38;;;25.29;100.00
61678;BME280;47575;52.054;4.334;2022-07-29T08:25:49;101747.97;;;25.32;100.00
61678;BME280;47575;52.054;4.334;2022-07-29T08:28:17;101746.09;;;25.66;100.00
61678;BME280;47575;52.054;4.334;2022-07-29T08:30:46;101748.72;;;27.15;100.00
61678;BME280;47575;52.054;4.334;2022-07-29T08:33:13;101745.47;;;27.21;100.00
61678;BME280;47575;52.054;4.334;2022-07-29T08:35:40;101744.28;;;27.04;100.00
61678;BME280;47575;52.054;4.334;2022-07-29T08:38:08;101757.13;;;27.41;100.00
61678;BME280;47575;52.054;4.334;2022-07-29T08:40:35;101760.34;;;27.25;100.00
61678;BME280;47575;52.054;4.334;2022-07-29T08:43:07;101753.41;;;27.02;100.00
61678;BME280;47575;52.054;4.334;2022-07-29T08:45:42;101758.56;;;28.14;100.00
61678;BME280;47575;52.054;4.334;2022-07-29T08:48:13;101765.91;;;27.83;100.00
61678;BME280;47575;52.054;4.334;2022-07-29T08:50:42;101764.50;;;27.79;100.00
61678;BME280;47575;52.054;4.334;2022-07-29T08:53:11;101760.19;;;27.57;100.00
61678;BME280;47575;52.054;4.334;2022-07-29T08:55:39;101752.69;;;26.69;100.00
61678;BME280;47575;52.054;4.334;2022-07-29T08:58:08;101749.22;;;26.26;100.00
61678;BME280;47575;52.054;4.334;2022-07-29T09:00:36;101762.34;;;26.08;100.00
61678;BME280;47575;52.054;4.334;2022-07-29T09:03:04;101749.09;;;26.27;100.00
61678;BME280;47575;52.054;4.334;2022-07-29T09:05:34;101753.59;;;26.80;100.00
61678;BME280;47575;52.054;4.334;2022-07-29T09:08:02;101761.34;;;27.65;100.00
61678;BME280;47575;52.054;4.334;2022-07-29T09:10:31;101761.28;;;28.14;100.00
61678;BME280;47575;52.054;4.334;2022-07-29T09:12:58;101750.44;;;28.82;100.00
61678;BME280;47575;52.054;4.334;2022-07-29T09:15:26;101749.97;;;28.40;100.00
61678;BME280;47575;52.054;4.334;2022-07-29T09:17:53;101748.22;;;29.42;100.00
61678;BME280;47575;52.054;4.334;2022-07-29T09:20:22;101750.53;;;29.10;100.00
61678;BME280;47575;52.054;4.334;2022-07-29T09:22:52;101743.50;;;28.80;100.00
61678;BME280;47575;52.054;4.334;2022-07-29T09:25:34;101743.13;;;27.97;100.00
61678;BME280;47575;52.054;4.334;2022-07-29T09:28:06;101742.16;;;29.40;100.00
61678;BME280;47575;52.054;4.334;2022-07-29T09:30:34;101744.09;;;29.93;100.00
61678;BME280;47575;52.054;4.334;2022-07-29T09:33:03;101742.97;;;30.14;100.00
61678;BME280;47575;52.054;4.334;2022-07-29T09:35:30;101747.63;;;28.74;100.00
61678;BME280;47575;52.054;4.334;2022-07-29T09:38:09;101743.25;;;29.75;100.00
61678;BME280;47575;52.054;4.334;2022-07-29T09:40:37;101748.72;;;30.01;100.00
61678;BME280;47575;52.054;4.334;2022-07-29T09:43:10;101745.31;;;30.26;100.00
61678;BME280;47575;52.054;4.334;2022-07-29T09:45:37;101741.63;;;29.37;100.00
61678;BME280;47575;52.054;4.334;2022-07-29T09:48:13;101747.84;;;29.65;100.00
61678;BME280;47575;52.054;4.334;2022-07-29T09:50:42;101749.25;;;29.04;100.00
61678;BME280;47575;52.054;4.334;2022-07-29T09:53:11;101735.22;;;30.01;100.00
61678;BME280;47575;52.054;4.334;2022-07-29T09:55:49;101741.31;;;31.08;100.00
61678;BME280;47575;52.054;4.334;2022-07-29T09:58:17;101740.63;;;30.54;100.00
61678;BME280;47575;52.054;4.334;2022-07-29T10:00:45;101745.00;;;30.73;100.00
61678;BME280;47575;52.054;4.334;2022-07-29T10:03:15;101747.97;;;30.44;100.00
61678;BME280;47575;52.054;4.334;2022-07-29T10:05:43;101746.69;;;30.13;100.00
61678;BME280;47575;52.054;4.334;2022-07-29T10:08:12;101743.16;;;30.56;100.00
61678;BME280;47575;52.054;4.334;2022-07-29T10:10:41;101741.16;;;29.87;100.00
61678;BME280;47575;52.054;4.334;2022-07-29T10:13:10;101732.78;;;28.22;100.00
61678;BME280;47575;52.054;4.334;2022-07-29T10:15:39;101736.31;;;29.72;100.00
61678;BME280;47575;52.054;4.334;2022-07-29T10:18:10;101732.25;;;30.66;100.00
61678;BME280;47575;52.054;4.334;2022-07-29T10:20:38;101737.81;;;30.02;100.00
61678;BME280;47575;52.054;4.334;2022-07-29T10:23:05;101737.91;;;31.06;100.00
61678;BME280;47575;52.054;4.334;2022-07-29T10:25:34;101734.34;;;30.54;100.00
61678;BME280;47575;52.054;4.334;2022-07-29T10:28:01;101734.50;;;30.70;100.00
61678;BME280;47575;52.054;4.334;2022-07-29T10:30:29;101736.72;;;31.43;100.00
61678;BME280;47575;52.054;4.334;2022-07-29T10:33:21;101732.13;;;30.93;100.00
61678;BME280;47575;52.054;4.334;2022-07-29T10:36:05;101735.84;;;30.92;100.00
61678;BME280;47575;52.054;4.334;2022-07-29T10:38:42;101745.66;;;31.78;100.00
61678;BME280;47575;52.054;4.334;2022-07-29T10:41:29;101731.25;;;30.67;100.00
61678;BME280;47575;52.054;4.334;2022-07-29T10:44:02;101732.16;;;30.75;100.00
61678;BME280;47575;52.054;4.334;2022-07-29T10:46:35;101723.47;;;30.46;100.00
61678;BME280;47575;52.054;4.334;2022-07-29T10:49:11;101729.50;;;30.83;100.00
61678;BME280;47575;52.054;4.334;2022-07-29T10:51:54;101732.56;;;31.14;100.00
61678;BME280;47575;52.054;4.334;2022-07-29T10:54:40;101732.03;;;31.45;100.00
61678;BME280;47575;52.054;4.334;2022-07-29T10:57:26;101727.56;;;31.28;100.00
61678;BME280;47575;52.054;4.334;2022-07-29T11:00:25;101730.28;;;31.02;100.00
61678;BME280;47575;52.054;4.334;2022-07-29T11:02:53;101723.19;;;31.01;100.00
61678;BME280;47575;52.054;4.334;2022-07-29T11:05:22;101723.88;;;31.03;100.00
61678;BME280;47575;52.054;4.334;2022-07-29T11:08:22;101725.34;;;31.23;100.00
61678;BME280;47575;52.054;4.334;2022-07-29T11:14:04;101717.59;;;30.68;100.00
61678;BME280;47575;52.054;4.334;2022-07-29T11:16:59;101720.50;;;31.01;100.00
61678;BME280;47575;52.054;4.334;2022-07-29T11:19:28;101729.03;;;30.88;100.00
61678;BME280;47575;52.054;4.334;2022-07-29T11:21:56;101728.94;;;30.72;100.00
61678;BME280;47575;52.054;4.334;2022-07-29T11:24:25;101728.56;;;30.67;100.00
61678;BME280;47575;52.054;4.334;2022-07-29T11:27:11;101729.16;;;30.78;100.00
61678;BME280;47575;52.054;4.334;2022-07-29T11:29:50;101719.59;;;30.66;100.00
61678;BME280;47575;52.054;4.334;2022-07-29T11:32:18;101719.88;;;30.01;100.00
61678;BME280;47575;52.054;4.334;2022-07-29T11:34:47;101733.00;;;31.02;100.00
61678;BME280;47575;52.054;4.334;2022-07-29T11:37:20;101725.69;;;30.68;100.00
61678;BME280;47575;52.054;4.334;2022-07-29T11:40:08;101721.59;;;30.20;100.00
61678;BME280;47575;52.054;4.334;2022-07-29T11:42:43;101715.81;;;30.33;100.00
61678;BME280;47575;52.054;4.334;2022-07-29T11:45:15;101723.91;;;30.33;100.00
61678;BME280;47575;52.054;4.334;2022-07-29T11:47:50;101726.22;;;30.28;100.00
61678;BME280;47575;52.054;4.334;2022-07-29T11:50:27;101723.69;;;30.26;100.00
61678;BME280;47575;52.054;4.334;2022-07-29T11:52:56;101721.94;;;29.72;100.00
61678;BME280;47575;52.054;4.334;2022-07-29T11:55:24;101714.94;;;29.61;100.00
61678;BME280;47575;52.054;4.334;2022-07-29T11:57:53;101726.78;;;29.96;100.00
61678;BME280;47575;52.054;4.334;2022-07-29T12:00:24;101726.53;;;30.07;100.00
61678;BME280;47575;52.054;4.334;2022-07-29T12:02:52;101724.59;;;29.82;100.00
61678;BME280;47575;52.054;4.334;2022-07-29T12:05:20;101724.91;;;29.96;100.00
61678;BME280;47575;52.054;4.334;2022-07-29T12:07:48;101725.78;;;29.24;100.00
61678;BME280;47575;52.054;4.334;2022-07-29T12:10:15;101723.38;;;29.21;100.00
61678;BME280;47575;52.054;4.334;2022-07-29T12:12:42;101723.69;;;29.73;100.00
61678;BME280;47575;52.054;4.334;2022-07-29T12:15:18;101731.06;;;29.71;100.00
61678;BME280;47575;52.054;4.334;2022-07-29T12:17:48;101738.53;;;29.49;100.00
61678;BME280;47575;52.054;4.334;2022-07-29T12:20:22;101733.22;;;29.67;100.00
61678;BME280;47575;52.054;4.334;2022-07-29T12:22:50;101738.88;;;29.74;100.00
61678;BME280;47575;52.054;4.334;2022-07-29T12:25:20;101738.81;;;28.82;100.00
61678;BME280;47575;52.054;4.334;2022-07-29T12:27:58;101733.97;;;29.32;100.00
61678;BME280;47575;52.054;4.334;2022-07-29T12:30:35;101738.00;;;29.18;100.00
61678;BME280;47575;52.054;4.334;2022-07-29T12:33:12;101738.50;;;29.32;100.00
61678;BME280;47575;52.054;4.334;2022-07-29T12:35:41;101739.88;;;28.13;100.00
61678;BME280;47575;52.054;4.334;2022-07-29T12:38:10;101736.06;;;28.25;100.00
61678;BME280;47575;52.054;4.334;2022-07-29T12:40:38;101738.75;;;28.06;100.00
61678;BME280;47575;52.054;4.334;2022-07-29T12:43:10;101741.13;;;28.77;100.00
61678;BME280;47575;52.054;4.334;2022-07-29T12:45:39;101745.75;;;28.94;100.00
61678;BME280;47575;52.054;4.334;2022-07-29T12:48:07;101748.16;;;28.97;100.00
61678;BME280;47575;52.054;4.334;2022-07-29T12:50:51;101743.59;;;28.98;100.00
61678;BME280;47575;52.054;4.334;2022-07-29T12:53:18;101746.31;;;28.98;100.00
61678;BME280;47575;52.054;4.334;2022-07-29T12:55:47;101741.56;;;28.53;100.00
61678;BME280;47575;52.054;4.334;2022-07-29T12:58:31;101742.69;;;28.69;100.00